METAR Data
IDs: Format: Raw Decoded Include TAF

Data at: 1455 UTC 18 Aug 2019

KHWD 181354Z AUTO 16008KT 10SM CLR 16/12 A2984 RMK AO2 SLP113 T01610117
No TAF found for KHWD

KBFL 181354Z 03004KT 10SM CLR 23/09 A2982 RMK AO2 SLP090 T02280094

KBFL 181120Z 1812/1912 VRB04KT P6SM SKC
  FM182000 32011KT P6SM SKC
  FM190300 35007KT P6SM SKC


KIFP 181447Z 00000KT 20SM SKC 30/M02 A2979

KIFP 181122Z 1812/1912 VRB05KT P6SM SCT250
  FM181700 20011KT P6SM SCT250
  FM181900 18015G25KT P6SM BKN250
  FM190200 15008KT P6SM SCT250